Hangaard, Minnesota
Current Conditions -  °F | °C
As of 8:15 PM on Friday 19 Dec 2014 (Local Time) from KFSE Reporting Station
Light Snow Light Snow  
Wind Chill: 15°   Ceiling: 1200
Heat Index: 25°   Visibility: 3mi
Dew Point: 25°   Wind: 9mph
Humidity: 100%   Direction: 150°SSE
Pressure: 30.02"   Gusts: NA
Location:  47.8469°N, 95.4815°W
Report Text: KFSE 200215Z AUTO 15008KT 3SM -SN OVC012 M04/M04 A3002 RMK AO2
Loading
Personal Weather Stations






























Interactive Weather Map New forecast layout! Learn more

10-Day Weather Forecast

Advertisements
Track Severe Weather on mobile